createdAt,value
2022-10-31T00:01:34.470Z,55.88
2022-10-31T00:04:01.227Z,56.05
2022-10-31T00:06:28.051Z,55.88
2022-10-31T00:08:57.142Z,56.09
2022-10-31T00:11:24.521Z,55.99
2022-10-31T00:13:51.162Z,56.78
2022-10-31T00:16:22.527Z,55.69
2022-10-31T00:18:53.765Z,55.53
2022-10-31T00:21:21.804Z,54.81
2022-10-31T00:23:48.480Z,55.37
2022-10-31T00:26:15.334Z,55.39
2022-10-31T00:28:42.016Z,55.87
2022-10-31T00:31:10.205Z,56.92
2022-10-31T00:33:39.669Z,56.93
2022-10-31T00:36:08.076Z,57.30
2022-10-31T00:38:34.663Z,58.15
2022-10-31T00:41:01.195Z,58.15
2022-10-31T00:43:28.028Z,58.41
2022-10-31T00:45:54.596Z,58.99
2022-10-31T00:48:21.174Z,58.79
2022-10-31T00:50:47.791Z,58.43
2022-10-31T00:53:14.317Z,58.04
2022-10-31T00:55:40.913Z,57.96
2022-10-31T00:58:07.753Z,57.41
2022-10-31T01:00:34.391Z,57.00
2022-10-31T01:03:01.497Z,56.26
2022-10-31T01:05:28.262Z,56.72
2022-10-31T01:07:54.861Z,57.27
2022-10-31T01:10:21.454Z,57.18
2022-10-31T01:12:49.637Z,57.44
2022-10-31T01:15:19.702Z,54.99
2022-10-31T01:17:46.675Z,55.12
2022-10-31T01:20:14.780Z,55.70
2022-10-31T01:22:41.453Z,56.17
2022-10-31T01:25:09.266Z,56.43
2022-10-31T01:27:36.162Z,56.00
2022-10-31T01:30:02.896Z,56.68
2022-10-31T01:32:33.310Z,56.99
2022-10-31T01:34:59.914Z,57.42
2022-10-31T01:37:26.477Z,57.37
2022-10-31T01:39:53.101Z,57.53
2022-10-31T01:42:22.356Z,57.18
2022-10-31T01:45:01.242Z,59.20
2022-10-31T01:47:37.294Z,57.76
2022-10-31T01:50:10.769Z,57.04
2022-10-31T01:52:41.801Z,57.43
2022-10-31T01:55:32.994Z,57.88
2022-10-31T01:58:05.756Z,58.44
2022-10-31T02:00:32.628Z,58.85
2022-10-31T02:03:00.698Z,58.50
2022-10-31T02:05:30.606Z,58.34
2022-10-31T02:08:24.184Z,58.95
2022-10-31T02:10:50.798Z,58.91
2022-10-31T02:13:18.365Z,59.37
2022-10-31T02:15:48.456Z,59.35
2022-10-31T02:18:15.160Z,58.45
2022-10-31T02:21:12.795Z,58.73
2022-10-31T02:23:57.201Z,59.27
2022-10-31T02:26:39.129Z,59.11
2022-10-31T02:29:18.288Z,59.86
2022-10-31T02:31:54.547Z,60.02
2022-10-31T02:34:21.035Z,60.20
2022-10-31T02:36:56.447Z,60.15
2022-10-31T02:39:50.536Z,60.84
2022-10-31T02:42:26.130Z,61.43
2022-10-31T02:45:12.683Z,61.15
2022-10-31T02:47:39.936Z,61.38
2022-10-31T02:50:21.403Z,62.01
2022-10-31T02:52:52.728Z,61.98
2022-10-31T02:55:28.601Z,62.37
2022-10-31T02:58:03.978Z,60.46
2022-10-31T03:00:38.722Z,60.52
2022-10-31T03:03:34.772Z,61.05
2022-10-31T03:06:09.851Z,60.11
2022-10-31T03:09:01.788Z,59.90
2022-10-31T03:11:43.897Z,59.22
2022-10-31T03:14:18.858Z,59.44
2022-10-31T03:16:51.232Z,59.43
2022-10-31T03:19:32.515Z,59.09
2022-10-31T03:22:02.372Z,59.07
2022-10-31T03:24:33.602Z,59.95
2022-10-31T03:27:02.436Z,59.99
2022-10-31T03:29:34.481Z,60.58
2022-10-31T03:32:35.837Z,60.66
2022-10-31T03:35:06.355Z,60.61
2022-10-31T03:37:35.125Z,60.49
2022-10-31T03:40:06.100Z,59.74
2022-10-31T03:42:35.761Z,60.07
2022-10-31T03:45:07.811Z,60.34
2022-10-31T03:47:37.609Z,59.71
2022-10-31T03:50:06.243Z,60.04
2022-10-31T03:52:50.703Z,60.45
2022-10-31T03:55:25.662Z,60.74
2022-10-31T03:57:52.162Z,60.14
2022-10-31T04:00:19.555Z,60.48
2022-10-31T04:02:57.024Z,60.21
2022-10-31T04:05:23.932Z,57.47
2022-10-31T04:07:55.068Z,57.00
2022-10-31T04:10:26.319Z,57.20
2022-10-31T04:13:04.652Z,57.88
2022-10-31T04:15:33.617Z,58.10
2022-10-31T04:18:02.657Z,58.34
2022-10-31T04:20:34.773Z,58.67
2022-10-31T04:23:02.325Z,59.45
2022-10-31T04:25:28.937Z,59.97
2022-10-31T04:27:55.637Z,61.02
2022-10-31T04:30:22.647Z,60.48
2022-10-31T04:32:49.259Z,61.09
2022-10-31T04:35:16.870Z,61.68
2022-10-31T04:37:43.400Z,60.09
2022-10-31T04:40:10.537Z,60.01
2022-10-31T04:42:37.108Z,60.08
2022-10-31T04:45:03.897Z,60.27
2022-10-31T04:47:33.469Z,60.26
2022-10-31T04:50:00.401Z,60.45
2022-10-31T04:52:26.981Z,60.25
2022-10-31T04:54:53.520Z,60.62
2022-10-31T04:57:20.093Z,61.34
2022-10-31T04:59:46.604Z,61.80
2022-10-31T05:02:13.248Z,59.96
2022-10-31T05:04:39.935Z,60.21
2022-10-31T05:07:06.509Z,60.73
2022-10-31T05:09:33.097Z,60.29
2022-10-31T05:11:59.665Z,60.82
2022-10-31T05:14:26.234Z,61.11
2022-10-31T05:16:52.750Z,61.02
2022-10-31T05:19:19.302Z,60.95
2022-10-31T05:21:45.877Z,60.87
2022-10-31T05:24:12.438Z,60.90
2022-10-31T05:26:38.989Z,60.11
2022-10-31T05:29:05.577Z,59.89
2022-10-31T05:31:32.167Z,59.49
2022-10-31T05:33:58.747Z,59.73
2022-10-31T05:36:25.403Z,59.19
2022-10-31T05:38:51.964Z,59.33
2022-10-31T05:41:18.739Z,59.89
2022-10-31T05:43:46.395Z,60.71
2022-10-31T05:46:12.958Z,60.49
2022-10-31T05:48:39.534Z,60.53
2022-10-31T05:51:06.192Z,59.84
2022-10-31T05:53:33.025Z,59.35
2022-10-31T05:55:59.621Z,58.85
2022-10-31T05:58:26.210Z,57.88
2022-10-31T06:00:54.126Z,57.65
2022-10-31T06:03:20.680Z,58.38
2022-10-31T06:05:50.718Z,57.92
2022-10-31T06:08:20.660Z,58.79
2022-10-31T06:10:47.296Z,59.13
2022-10-31T06:13:13.879Z,58.83
2022-10-31T06:15:42.070Z,58.98
2022-10-31T06:18:09.335Z,58.15
2022-10-31T06:20:36.037Z,58.85
2022-10-31T06:23:03.388Z,58.36
2022-10-31T06:25:30.334Z,57.26
2022-10-31T06:27:56.996Z,62.12
2022-10-31T06:30:23.684Z,60.43
2022-10-31T06:32:50.774Z,59.68
2022-10-31T06:35:17.505Z,57.93
2022-10-31T06:37:46.736Z,58.41
2022-10-31T06:40:14.821Z,59.17
2022-10-31T06:42:41.480Z,60.23
2022-10-31T06:45:08.344Z,60.80
2022-10-31T06:47:41.450Z,59.37
2022-10-31T06:50:12.374Z,58.32
2022-10-31T06:52:38.971Z,58.15
2022-10-31T06:55:05.945Z,56.95
2022-10-31T06:57:32.660Z,57.59
2022-10-31T06:59:59.224Z,57.67
2022-10-31T07:02:25.840Z,57.74
2022-10-31T07:04:52.451Z,56.98
2022-10-31T07:07:22.220Z,56.67
2022-10-31T07:09:48.811Z,56.19
2022-10-31T07:12:16.632Z,57.77
2022-10-31T07:14:43.208Z,56.91
2022-10-31T07:17:09.777Z,56.09
2022-10-31T07:19:36.455Z,59.18
2022-10-31T07:22:03.007Z,57.86
2022-10-31T07:24:30.270Z,56.16
2022-10-31T07:26:56.948Z,54.22
2022-10-31T07:29:23.554Z,57.19
2022-10-31T07:31:50.106Z,56.43
2022-10-31T07:34:16.740Z,53.39
2022-10-31T07:36:43.293Z,52.82
2022-10-31T07:39:09.930Z,53.71
2022-10-31T07:41:36.618Z,53.34
2022-10-31T07:44:03.256Z,51.79
2022-10-31T07:46:29.877Z,52.06
2022-10-31T07:48:56.469Z,50.87
2022-10-31T07:51:24.539Z,52.27
2022-10-31T07:53:51.183Z,51.78
2022-10-31T07:56:17.716Z,50.30
2022-10-31T07:58:44.318Z,50.27
2022-10-31T08:03:42.400Z,49.51
2022-10-31T08:06:08.941Z,48.84
2022-10-31T08:08:38.294Z,49.26
2022-10-31T08:11:05.254Z,50.72
2022-10-31T08:13:31.934Z,49.28
2022-10-31T08:16:04.380Z,48.25
2022-10-31T08:18:31.499Z,49.97
2022-10-31T08:20:58.101Z,48.28
2022-10-31T08:23:24.825Z,48.96
2022-10-31T08:25:51.404Z,47.54
2022-10-31T08:28:17.981Z,46.88
2022-10-31T08:30:44.649Z,47.48
2022-10-31T08:33:16.527Z,46.91
2022-10-31T08:35:43.412Z,47.08
2022-10-31T08:38:12.275Z,46.33
2022-10-31T08:40:39.808Z,46.72
2022-10-31T08:43:11.659Z,45.84
2022-10-31T08:45:38.404Z,45.30
2022-10-31T08:48:07.608Z,45.21
2022-10-31T08:50:35.773Z,45.53
2022-10-31T08:53:16.932Z,44.59
2022-10-31T08:55:44.508Z,45.08
2022-10-31T08:58:13.933Z,44.87
2022-10-31T09:00:41.047Z,42.42
2022-10-31T09:03:11.935Z,40.85
2022-10-31T09:05:39.177Z,39.13
2022-10-31T09:08:11.675Z,38.82
2022-10-31T09:10:41.788Z,38.50
2022-10-31T09:13:11.831Z,37.92
2022-10-31T09:15:40.770Z,37.25
2022-10-31T09:18:08.514Z,35.16
2022-10-31T09:20:37.084Z,35.77
2022-10-31T09:23:10.954Z,34.40
2022-10-31T09:25:38.245Z,35.01
2022-10-31T09:28:06.784Z,35.91
2022-10-31T09:30:35.355Z,36.17
2022-10-31T09:33:06.965Z,36.58
2022-10-31T09:35:34.471Z,36.47
2022-10-31T09:38:03.492Z,37.06
2022-10-31T09:41:08.751Z,36.86
2022-10-31T09:44:11.914Z,36.01
2022-10-31T09:47:01.938Z,36.35
2022-10-31T09:49:54.160Z,35.95
2022-10-31T09:52:32.173Z,36.23
2022-10-31T09:55:09.976Z,33.97
2022-10-31T09:57:38.110Z,31.07
2022-10-31T10:00:07.662Z,31.66
2022-10-31T10:02:41.705Z,32.00
2022-10-31T10:05:14.119Z,32.44
2022-10-31T10:07:58.554Z,32.32
2022-10-31T10:11:03.007Z,31.92
2022-10-31T10:13:38.102Z,32.97
2022-10-31T10:16:34.219Z,33.76
2022-10-31T10:19:22.009Z,33.23
2022-10-31T10:22:00.704Z,34.29
2022-10-31T10:24:42.330Z,33.23
2022-10-31T10:27:29.697Z,32.06
2022-10-31T10:30:05.048Z,32.40
2022-10-31T10:32:51.065Z,32.47
2022-10-31T10:35:18.783Z,33.52
2022-10-31T10:37:47.932Z,32.83
2022-10-31T10:40:26.100Z,32.38
2022-10-31T10:43:17.186Z,32.18
2022-10-31T10:46:09.223Z,31.56
2022-10-31T10:49:01.405Z,29.97
2022-10-31T10:52:27.420Z,30.31
2022-10-31T10:54:55.973Z,31.76
2022-10-31T10:57:37.348Z,31.66
2022-10-31T11:00:22.110Z,31.51
2022-10-31T11:02:49.568Z,31.43
2022-10-31T11:05:41.465Z,29.89
2022-10-31T11:08:09.029Z,29.67
2022-10-31T11:10:36.419Z,30.76
2022-10-31T11:13:03.448Z,27.31
2022-10-31T11:15:35.180Z,23.65
2022-10-31T11:18:02.628Z,21.62
2022-10-31T11:20:37.256Z,20.91
2022-10-31T11:23:16.893Z,20.24
2022-10-31T11:26:00.903Z,20.02
2022-10-31T11:28:30.419Z,20.06
2022-10-31T11:31:01.394Z,18.73
2022-10-31T11:33:32.829Z,21.42
2022-10-31T11:36:01.118Z,21.68
2022-10-31T11:38:35.949Z,20.96
2022-10-31T11:41:05.347Z,19.43
2022-10-31T11:43:32.009Z,21.97
2022-10-31T11:45:58.719Z,21.79
2022-10-31T11:48:26.489Z,21.59
2022-10-31T11:50:57.232Z,21.57
2022-10-31T11:53:35.278Z,20.45
2022-10-31T11:56:16.831Z,19.88
2022-10-31T11:58:43.611Z,20.33
2022-10-31T12:01:26.435Z,20.71
2022-10-31T12:04:08.155Z,22.58
2022-10-31T12:06:40.245Z,24.59
2022-10-31T12:09:39.397Z,26.46
2022-10-31T12:12:27.376Z,27.98
2022-10-31T12:15:15.268Z,28.92
2022-10-31T12:17:41.791Z,30.43
2022-10-31T12:20:35.908Z,28.79
2022-10-31T12:23:05.694Z,28.54
2022-10-31T12:25:51.138Z,29.11
2022-10-31T12:28:39.995Z,27.97
2022-10-31T12:31:46.948Z,26.71
2022-10-31T12:34:38.325Z,26.44
2022-10-31T12:37:13.988Z,26.40
2022-10-31T12:39:45.870Z,27.85
2022-10-31T12:42:18.098Z,28.54
2022-10-31T12:44:55.939Z,29.79
2022-10-31T12:47:43.907Z,29.77
2022-10-31T12:50:25.448Z,31.19
2022-10-31T12:53:11.445Z,31.61
2022-10-31T12:55:56.967Z,31.07
2022-10-31T12:58:30.194Z,31.04
2022-10-31T13:01:12.723Z,31.67
2022-10-31T13:03:56.332Z,30.96
2022-10-31T13:06:34.444Z,31.10
2022-10-31T13:09:06.037Z,32.18
2022-10-31T13:11:38.829Z,31.85
2022-10-31T13:14:27.774Z,30.40
2022-10-31T13:16:56.750Z,28.86
2022-10-31T13:19:28.879Z,28.03
2022-10-31T13:22:04.348Z,26.57
2022-10-31T13:24:46.752Z,25.14
2022-10-31T13:27:24.169Z,25.29
2022-10-31T13:30:17.213Z,27.89
2022-10-31T13:32:47.898Z,29.69
2022-10-31T13:35:38.277Z,31.20
2022-10-31T13:38:22.490Z,31.49
2022-10-31T13:41:03.053Z,32.80
2022-10-31T13:43:32.440Z,33.37
2022-10-31T13:45:59.077Z,33.16
2022-10-31T13:48:28.701Z,33.78
2022-10-31T13:51:04.397Z,34.56
2022-10-31T13:54:08.354Z,34.84
2022-10-31T13:56:36.527Z,35.60
2022-10-31T13:59:15.927Z,35.39
2022-10-31T14:01:51.921Z,36.24
2022-10-31T14:04:26.056Z,36.40
2022-10-31T14:07:09.347Z,37.00
2022-10-31T14:09:35.883Z,37.10
2022-10-31T14:12:06.697Z,37.66
2022-10-31T14:14:43.812Z,36.89
2022-10-31T14:17:20.377Z,38.33
2022-10-31T14:20:11.805Z,37.95
2022-10-31T14:22:42.858Z,38.04
2022-10-31T14:25:45.035Z,39.18
2022-10-31T14:28:35.077Z,39.84
2022-10-31T14:31:02.237Z,40.14
2022-10-31T14:33:31.088Z,40.53
2022-10-31T14:36:33.158Z,41.67
2022-10-31T14:39:44.541Z,41.67
2022-10-31T14:42:43.064Z,42.10
2022-10-31T14:45:19.369Z,40.74
2022-10-31T14:48:11.073Z,41.08
2022-10-31T14:50:50.213Z,41.37
2022-10-31T14:53:46.358Z,41.93
2022-10-31T14:56:13.173Z,41.24
2022-10-31T14:58:44.155Z,41.76
2022-10-31T15:01:27.722Z,41.87
2022-10-31T15:06:50.063Z,42.56
2022-10-31T15:09:28.396Z,43.31
2022-10-31T15:11:55.024Z,43.91
2022-10-31T15:14:30.050Z,43.89
2022-10-31T15:17:03.217Z,44.08
2022-10-31T15:19:33.679Z,43.92
2022-10-31T15:22:01.509Z,43.94
2022-10-31T15:24:36.297Z,44.41
2022-10-31T15:27:05.341Z,44.65
2022-10-31T15:29:32.696Z,44.75
2022-10-31T15:32:21.100Z,44.93
2022-10-31T15:34:47.866Z,45.46
2022-10-31T15:37:17.130Z,46.21
2022-10-31T15:39:47.982Z,45.82
2022-10-31T15:42:20.389Z,45.87
2022-10-31T15:44:52.150Z,46.62
2022-10-31T15:47:22.526Z,46.54
2022-10-31T15:49:56.524Z,47.04
2022-10-31T15:52:29.558Z,47.56
2022-10-31T15:55:00.198Z,47.44
2022-10-31T15:57:29.791Z,47.79
2022-10-31T15:59:56.453Z,48.36
2022-10-31T16:02:26.681Z,48.76
2022-10-31T16:05:03.931Z,49.11
2022-10-31T16:07:31.363Z,48.69
2022-10-31T16:09:58.009Z,48.94
2022-10-31T16:12:29.960Z,49.23
2022-10-31T16:14:56.769Z,49.05
2022-10-31T16:17:27.120Z,49.38
2022-10-31T16:20:07.296Z,49.63
2022-10-31T16:22:38.921Z,50.05
2022-10-31T16:25:07.143Z,50.35
2022-10-31T16:27:35.579Z,50.56
2022-10-31T16:30:07.617Z,50.74
2022-10-31T16:32:37.080Z,50.68
2022-10-31T16:35:10.318Z,51.17
2022-10-31T16:37:43.712Z,51.38
2022-10-31T16:40:15.483Z,51.51
2022-10-31T16:42:43.337Z,51.44
2022-10-31T16:45:25.602Z,51.93
2022-10-31T16:47:52.633Z,51.88
2022-10-31T16:50:26.806Z,52.04
2022-10-31T16:53:08.745Z,52.25
2022-10-31T16:55:45.895Z,52.81
2022-10-31T16:58:26.202Z,52.96
2022-10-31T17:00:53.990Z,53.05
2022-10-31T17:03:20.945Z,53.75
2022-10-31T17:05:47.575Z,53.98
2022-10-31T17:08:14.272Z,53.40
2022-10-31T17:10:42.696Z,53.74
2022-10-31T17:13:18.030Z,54.04
2022-10-31T17:15:50.772Z,54.16
2022-10-31T17:18:20.545Z,54.61
2022-10-31T17:20:55.768Z,55.11
2022-10-31T17:23:22.415Z,55.04
2022-10-31T17:25:48.979Z,55.07
2022-10-31T17:28:15.728Z,55.00
2022-10-31T17:30:43.455Z,55.42
2022-10-31T17:33:13.286Z,55.99
2022-10-31T17:35:40.197Z,56.13
2022-10-31T17:38:06.799Z,56.56
2022-10-31T17:40:33.575Z,56.25
2022-10-31T17:43:00.627Z,57.04
2022-10-31T17:45:27.478Z,57.35
2022-10-31T17:47:54.658Z,57.28
2022-10-31T17:50:23.940Z,57.60
2022-10-31T17:52:51.087Z,57.52
2022-10-31T17:55:18.479Z,57.45
2022-10-31T17:57:45.433Z,57.21
2022-10-31T18:00:18.336Z,57.45
2022-10-31T18:02:44.967Z,57.70
2022-10-31T18:05:11.698Z,57.54
2022-10-31T18:07:38.370Z,57.89
2022-10-31T18:10:06.114Z,57.57
2022-10-31T18:12:32.692Z,57.51
2022-10-31T18:14:59.345Z,57.61
2022-10-31T18:17:26.617Z,57.42
2022-10-31T18:19:53.307Z,57.19
2022-10-31T18:22:20.095Z,57.83
2022-10-31T18:24:46.682Z,57.68
2022-10-31T18:27:13.296Z,57.58
2022-10-31T18:29:39.827Z,57.64
2022-10-31T18:32:09.467Z,57.69
2022-10-31T18:34:36.823Z,57.57
2022-10-31T18:37:03.862Z,58.39
2022-10-31T18:39:30.827Z,57.57
2022-10-31T18:41:57.502Z,57.73
2022-10-31T18:44:24.210Z,57.62
2022-10-31T18:46:50.792Z,57.32
2022-10-31T18:49:22.633Z,57.17
2022-10-31T18:51:50.447Z,57.23
2022-10-31T18:54:17.143Z,57.53
2022-10-31T18:56:44.253Z,57.78
2022-10-31T18:59:11.925Z,57.82
2022-10-31T19:01:38.716Z,57.74
2022-10-31T19:04:05.647Z,57.60
2022-10-31T19:06:32.349Z,58.68
2022-10-31T19:09:01.016Z,58.32
2022-10-31T19:11:27.768Z,59.23
2022-10-31T19:13:54.432Z,59.72
2022-10-31T19:16:21.015Z,59.89
2022-10-31T19:18:47.647Z,59.56
2022-10-31T19:21:16.734Z,59.37
2022-10-31T19:23:44.873Z,59.13
2022-10-31T19:26:12.517Z,59.36
2022-10-31T19:28:40.677Z,58.92
2022-10-31T19:31:08.811Z,59.63
2022-10-31T19:33:36.394Z,59.93
2022-10-31T19:36:14.151Z,60.53
2022-10-31T19:38:45.301Z,61.32
2022-10-31T19:41:14.789Z,61.63
2022-10-31T19:43:42.004Z,62.59
2022-10-31T19:46:17.539Z,62.73
2022-10-31T19:48:55.040Z,63.30
2022-10-31T19:51:21.956Z,63.95
2022-10-31T19:53:52.395Z,64.15
2022-10-31T19:56:21.863Z,64.84
2022-10-31T19:58:48.912Z,64.59
2022-10-31T20:01:18.067Z,65.70
2022-10-31T20:03:45.717Z,65.36
2022-10-31T20:06:21.280Z,65.78
2022-10-31T20:08:47.841Z,66.07
2022-10-31T20:11:14.473Z,66.32
2022-10-31T20:13:41.140Z,66.25
2022-10-31T20:16:11.857Z,66.41
2022-10-31T20:18:38.917Z,67.01
2022-10-31T20:21:17.126Z,67.03
2022-10-31T20:23:44.523Z,67.14
2022-10-31T20:26:14.195Z,67.28
2022-10-31T20:28:43.215Z,67.93
2022-10-31T20:31:22.454Z,68.66
2022-10-31T20:33:49.764Z,68.31
2022-10-31T20:36:21.191Z,68.92
2022-10-31T20:38:47.909Z,68.95
2022-10-31T20:41:15.268Z,69.47
2022-10-31T20:43:42.180Z,69.55
2022-10-31T20:46:12.564Z,69.91
2022-10-31T20:48:39.370Z,70.65
2022-10-31T20:51:08.301Z,70.55
2022-10-31T20:53:34.884Z,71.10
2022-10-31T20:56:08.627Z,70.56
2022-10-31T20:58:36.945Z,71.01
2022-10-31T21:01:05.485Z,71.27
2022-10-31T21:03:32.204Z,71.37
2022-10-31T21:06:01.135Z,71.21
2022-10-31T21:08:30.258Z,71.10
2022-10-31T21:10:57.305Z,71.37
2022-10-31T21:13:24.567Z,71.49
2022-10-31T21:16:09.120Z,71.94
2022-10-31T21:18:37.427Z,71.44
2022-10-31T21:21:32.553Z,71.90
2022-10-31T21:24:08.547Z,71.97
2022-10-31T21:26:37.870Z,72.20
2022-10-31T21:29:05.822Z,72.36
2022-10-31T21:31:33.225Z,72.39
2022-10-31T21:33:59.782Z,72.38
2022-10-31T21:36:26.712Z,72.25
2022-10-31T21:38:54.927Z,72.17
2022-10-31T21:41:22.483Z,71.59
2022-10-31T21:43:51.181Z,72.00
2022-10-31T21:46:23.556Z,71.55
2022-10-31T21:48:50.445Z,71.47
2022-10-31T21:51:26.138Z,71.10
2022-10-31T21:54:11.162Z,70.97
2022-10-31T21:56:38.307Z,71.56
2022-10-31T21:59:05.921Z,71.29
2022-10-31T22:01:33.530Z,71.16
2022-10-31T22:04:00.724Z,71.11
2022-10-31T22:06:30.010Z,71.41
2022-10-31T22:08:58.983Z,71.71
2022-10-31T22:11:25.862Z,71.93
2022-10-31T22:13:52.483Z,71.79
2022-10-31T22:16:20.926Z,71.94
2022-10-31T22:18:51.371Z,72.14
2022-10-31T22:21:20.165Z,72.13
2022-10-31T22:24:06.689Z,72.12
2022-10-31T22:26:34.826Z,72.21
2022-10-31T22:29:04.960Z,72.62
2022-10-31T22:31:32.937Z,72.67
2022-10-31T22:33:59.592Z,72.36
2022-10-31T22:36:29.205Z,72.81
2022-10-31T22:38:56.472Z,72.96
2022-10-31T22:41:28.640Z,73.16
2022-10-31T22:43:56.209Z,73.10
2022-10-31T22:46:26.144Z,73.91
2022-10-31T22:48:55.000Z,73.91
2022-10-31T22:51:24.430Z,74.06
2022-10-31T22:53:51.771Z,74.36
2022-10-31T22:56:20.908Z,74.31
2022-10-31T22:58:48.048Z,74.26
2022-10-31T23:01:17.103Z,74.40
2022-10-31T23:03:44.498Z,74.80
2022-10-31T23:06:16.865Z,75.07
2022-10-31T23:08:44.068Z,74.84
2022-10-31T23:11:32.405Z,74.63
2022-10-31T23:14:09.840Z,74.57
2022-10-31T23:16:40.680Z,74.31
2022-10-31T23:19:08.408Z,74.53
2022-10-31T23:21:56.493Z,74.79
2022-10-31T23:24:34.765Z,74.70
2022-10-31T23:27:09.454Z,74.98
2022-10-31T23:29:50.667Z,75.96
2022-10-31T23:32:23.408Z,76.46
2022-10-31T23:34:51.912Z,76.46
2022-10-31T23:37:19.849Z,77.20
2022-10-31T23:39:46.657Z,77.20
2022-10-31T23:42:16.796Z,76.72
2022-10-31T23:44:43.537Z,76.56
2022-10-31T23:47:10.183Z,76.27
2022-10-31T23:49:36.897Z,76.70
2022-10-31T23:52:04.487Z,76.40
2022-10-31T23:54:31.813Z,76.41
2022-10-31T23:56:58.929Z,76.54
2022-10-31T23:59:26.593Z,76.67
